Terminal Aerodrome Forecast
Issued by NWS

Home | Current Version | Previous Version | Text Only | Print | Product List | Glossary On
Versions: 1 2 3 4 5 6 7 8 9 10 11 12 13 14
000
FTUS45 KRIW 021135
TAFWRL
TAF
KWRL 021135Z 0212/0312 VRB05KT P6SM SCT120
     FM022000 16006KT P6SM SCT070 SCT100
     FM022200 VRB10G25KT P6SM VCTS BKN070CB
     FM030200 34009KT P6SM VCSH SCT070 BKN110
     FM030500 33006KT P6SM SCT120=

USA.gov is the U.S. government's official web portal to all federal, state and local government web resources and services.